Time;durP1;ratioP1;P1;durP2;ratioP2;P2;SDS_P1;SDS_P2;PMS_P1;PMS_P2;Temp;Humidity;BMP_temperature;BMP_pressure;BME280_temperature;BME280_humidity;BME280_pressure;Samples;Min_cycle;Max_cycle;Signal;HPM_P1;HPM_P2
2023/06/04 00:02:57;;;;;;;2.70;2.27;;;;;;;16.05;55.00;102213.31;6224007;28;20232;-77
2023/06/04 00:06:18;;;;;;;4.17;2.10;;;;;;;15.96;55.21;102202.25;6220322;28;20233;-77
2023/06/04 00:09:39;;;;;;;2.23;2.03;;;;;;;16.02;55.70;102213.59;6222068;28;20232;-77
2023/06/04 00:13:01;;;;;;;3.73;2.80;;;;;;;16.04;55.70;102211.59;6221856;28;20224;-77
2023/06/04 00:16:22;;;;;;;3.13;2.17;;;;;;;16.02;55.66;102205.44;6205518;28;20323;-76
2023/06/04 00:19:43;;;;;;;2.27;1.73;;;;;;;15.88;55.55;102207.53;6217890;28;20528;-75
2023/06/04 00:23:04;;;;;;;4.07;2.80;;;;;;;15.82;56.00;102207.22;6221107;28;20836;-76
2023/06/04 00:26:25;;;;;;;4.37;2.50;;;;;;;15.75;56.05;102200.63;6221712;28;20530;-77
2023/06/04 00:29:47;;;;;;;3.57;1.90;;;;;;;15.73;56.25;102202.59;6223020;28;20658;-76
2023/06/04 00:33:08;;;;;;;3.33;2.73;;;;;;;15.71;56.44;102210.91;6215638;28;20225;-76
2023/06/04 00:36:29;;;;;;;3.90;3.33;;;;;;;15.68;56.58;102205.75;6217009;28;22947;-77
2023/06/04 00:39:50;;;;;;;2.77;2.10;;;;;;;15.73;56.32;102203.47;6222501;28;20321;-77
2023/06/04 00:43:13;;;;;;;5.10;2.50;;;;;;;15.52;56.68;102205.38;6213203;28;20248;-78
2023/06/04 00:46:36;;;;;;;2.53;2.10;;;;;;;15.42;57.42;102192.69;6218019;28;20232;-77
2023/06/04 00:49:59;;;;;;;2.73;1.87;;;;;;;15.45;57.80;102192.47;6224663;28;20229;-77
2023/06/04 00:53:24;;;;;;;3.30;2.20;;;;;;;15.35;57.70;102195.13;6227315;28;20264;-75
2023/06/04 00:56:45;;;;;;;4.67;3.00;;;;;;;15.45;57.89;102206.91;6222876;28;20327;-77
2023/06/04 01:00:07;;;;;;;3.80;2.70;;;;;;;15.35;57.29;102203.25;6218801;28;20229;-76
2023/06/04 01:03:32;;;;;;;1.97;1.83;;;;;;;15.36;57.44;102195.94;6223965;28;20236;-77
2023/06/04 01:06:58;;;;;;;2.83;2.60;;;;;;;15.34;57.93;102198.81;6223671;28;20236;-77
2023/06/04 01:10:22;;;;;;;2.70;2.40;;;;;;;15.30;57.62;102202.78;6223238;28;20232;-76
2023/06/04 01:13:43;;;;;;;4.13;2.03;;;;;;;15.30;57.54;102189.22;6225813;28;20233;-76
2023/06/04 01:17:16;;;;;;;2.53;1.97;;;;;;;15.20;58.05;102188.28;6228178;28;21228;-76
2023/06/04 01:20:43;;;;;;;2.33;1.77;;;;;;;15.15;58.23;102198.69;6226207;28;20248;-77
2023/06/04 01:24:06;;;;;;;2.57;2.37;;;;;;;15.00;58.71;102200.88;6221899;28;20323;-76
2023/06/04 01:27:28;;;;;;;2.50;2.00;;;;;;;15.10;59.11;102190.94;6231886;28;20236;-76
2023/06/04 01:30:52;;;;;;;1.87;1.77;;;;;;;15.02;59.17;102198.88;6227327;28;20221;-75
2023/06/04 01:34:12;;;;;;;3.50;2.50;;;;;;;14.96;59.47;102193.13;6238660;28;20232;-76
2023/06/04 01:37:34;;;;;;;4.23;2.83;;;;;;;14.96;59.05;102194.00;6229792;28;20591;-76
2023/06/04 01:41:00;;;;;;;5.17;3.07;;;;;;;14.87;59.45;102199.38;6225188;28;20697;-75
2023/06/04 01:44:21;;;;;;;3.27;3.03;;;;;;;14.78;59.83;102190.16;6219629;28;20236;-78
2023/06/04 01:47:43;;;;;;;4.20;3.37;;;;;;;14.70;60.14;102195.38;6217890;28;20232;-76
2023/06/04 01:51:05;;;;;;;3.73;2.90;;;;;;;14.68;60.25;102188.34;6240087;28;20258;-78
2023/06/04 01:54:29;;;;;;;1.93;1.73;;;;;;;14.51;60.43;102191.63;6228646;28;20236;-76
2023/06/04 01:57:51;;;;;;;3.53;2.90;;;;;;;14.41;60.41;102197.81;6215732;28;20232;-77
2023/06/04 02:01:12;;;;;;;3.00;2.47;;;;;;;14.56;60.54;102192.09;6228180;28;20630;-74
2023/06/04 02:04:36;;;;;;;2.40;2.20;;;;;;;14.60;60.30;102194.44;6215581;28;20252;-76
2023/06/04 02:07:57;;;;;;;2.83;2.37;;;;;;;14.51;60.62;102186.19;6247160;28;22282;-76
2023/06/04 02:11:19;;;;;;;3.20;2.40;;;;;;;14.38;61.06;102184.53;6228629;28;20229;-77
2023/06/04 02:14:41;;;;;;;3.13;2.30;;;;;;;14.46;61.20;102183.84;6224231;28;20551;-75
2023/06/04 02:18:16;;;;;;;4.87;3.27;;;;;;;14.39;61.19;102175.38;6222219;28;20268;-76
2023/06/04 02:21:37;;;;;;;3.70;2.90;;;;;;;14.30;61.71;102186.16;6228439;28;20288;-78
2023/06/04 02:24:58;;;;;;;2.37;2.20;;;;;;;14.35;61.51;102184.75;6231875;28;20559;-77
2023/06/04 02:28:21;;;;;;;3.33;2.83;;;;;;;14.27;61.70;102189.06;6234917;28;20240;-77
2023/06/04 02:31:42;;;;;;;2.53;2.23;;;;;;;14.30;61.96;102189.72;6232365;28;20513;-77
2023/06/04 02:35:03;;;;;;;2.70;2.50;;;;;;;14.40;61.70;102187.97;6218984;28;20236;-77
2023/06/04 02:38:24;;;;;;;4.90;2.60;;;;;;;14.29;61.37;102181.69;6230063;28;20220;-77
2023/06/04 02:41:45;;;;;;;6.03;2.97;;;;;;;14.25;61.35;102182.91;6229239;28;20237;-76
2023/06/04 02:45:09;;;;;;;4.53;2.50;;;;;;;14.19;61.06;102173.44;6223718;28;20275;-77
2023/06/04 02:48:30;;;;;;;2.10;1.90;;;;;;;14.20;61.08;102185.16;6214614;28;20244;-76
2023/06/04 02:51:51;;;;;;;1.93;1.73;;;;;;;14.14;61.05;102181.09;6230930;28;20236;-76
2023/06/04 02:55:12;;;;;;;3.03;2.63;;;;;;;14.19;61.27;102188.84;6227145;28;20237;-76
2023/06/04 02:58:39;;;;;;;2.43;2.00;;;;;;;14.12;61.46;102182.22;6223931;28;20239;-76
2023/06/04 03:02:01;;;;;;;4.47;2.47;;;;;;;14.21;61.42;102189.56;6210975;28;20224;-76
2023/06/04 03:05:23;;;;;;;2.13;1.93;;;;;;;14.13;61.11;102181.22;6219282;28;20224;-78
2023/06/04 03:08:44;;;;;;;2.77;2.00;;;;;;;14.20;60.94;102177.91;6230107;28;20232;-77
2023/06/04 03:12:06;;;;;;;2.80;2.40;;;;;;;14.06;61.46;102183.56;6227440;28;20311;-79
2023/06/04 03:15:27;;;;;;;3.83;2.20;;;;;;;13.99;61.26;102181.50;6224096;28;20228;-78
2023/06/04 03:18:49;;;;;;;4.43;3.00;;;;;;;14.14;61.10;102182.97;6229478;28;20228;-77
2023/06/04 03:22:10;;;;;;;3.20;2.07;;;;;;;14.10;61.17;102178.78;6228899;28;20232;-77
2023/06/04 03:25:32;;;;;;;2.50;1.93;;;;;;;14.09;61.11;102172.50;6215177;28;20232;-78
2023/06/04 03:28:53;;;;;;;1.73;1.63;;;;;;;14.04;61.32;102176.56;6227807;28;20253;-78
2023/06/04 03:32:15;;;;;;;3.83;2.83;;;;;;;14.14;61.28;102178.38;6227625;28;20245;-78
2023/06/04 03:35:42;;;;;;;1.80;1.63;;;;;;;14.07;61.27;102187.16;6224169;28;20266;-76
2023/06/04 03:39:04;;;;;;;2.50;2.23;;;;;;;14.01;61.30;102180.41;6230746;28;20510;-76
2023/06/04 03:42:25;;;;;;;2.50;2.23;;;;;;;14.03;61.95;102178.41;6222894;28;20228;-77
2023/06/04 03:45:46;;;;;;;3.37;1.93;;;;;;;14.15;61.87;102169.25;6217099;28;20221;-76
2023/06/04 03:49:07;;;;;;;3.30;2.57;;;;;;;14.16;61.94;102187.25;6222508;28;20235;-76
2023/06/04 03:52:30;;;;;;;2.93;2.40;;;;;;;14.16;62.46;102179.09;6239952;28;20596;-77
2023/06/04 03:55:53;;;;;;;4.23;2.20;;;;;;;14.16;61.77;102181.81;6202879;28;20240;-78
2023/06/04 03:59:14;;;;;;;2.33;2.07;;;;;;;14.22;61.50;102184.06;6223811;28;20922;-78
2023/06/04 04:02:36;;;;;;;2.50;2.10;;;;;;;14.40;61.28;102176.25;6225039;28;20520;-77
2023/06/04 04:05:57;;;;;;;2.90;2.07;;;;;;;14.21;61.39;102176.88;6235562;28;20232;-77
2023/06/04 04:09:20;;;;;;;1.90;1.70;;;;;;;14.27;61.72;102178.22;6226597;28;20224;-78
2023/06/04 04:12:41;;;;;;;4.77;2.47;;;;;;;14.40;60.97;102179.81;6225931;28;20646;-78
2023/06/04 04:16:02;;;;;;;2.43;2.23;;;;;;;14.38;61.59;102187.22;6226596;28;20228;-77
2023/06/04 04:19:23;;;;;;;2.83;2.23;;;;;;;14.38;61.76;102189.06;6233157;28;20541;-77
2023/06/04 04:22:44;;;;;;;3.53;2.00;;;;;;;14.36;61.86;102199.19;6228935;28;20493;-78
2023/06/04 04:26:09;;;;;;;2.23;1.73;;;;;;;14.47;61.50;102188.31;6221162;28;20618;-77
2023/06/04 04:29:32;;;;;;;4.67;2.40;;;;;;;14.31;61.18;102199.56;6223398;28;20232;-76
2023/06/04 04:32:54;;;;;;;1.80;1.70;;;;;;;14.25;61.07;102204.59;6229394;28;20232;-78
2023/06/04 04:36:20;;;;;;;2.23;2.03;;;;;;;13.89;61.33;102199.53;6226984;28;20248;-77
2023/06/04 04:39:42;;;;;;;1.93;1.63;;;;;;;14.12;61.54;102196.63;6228958;28;20503;-78
2023/06/04 04:43:05;;;;;;;2.00;1.73;;;;;;;14.41;60.66;102210.53;6216081;28;20312;-78
2023/06/04 04:46:26;;;;;;;2.57;2.37;;;;;;;14.41;60.71;102195.09;6226014;28;20233;-76
2023/06/04 04:49:49;;;;;;;2.63;1.57;;;;;;;14.43;60.63;102208.56;6229226;28;20531;-77
2023/06/04 04:53:10;;;;;;;2.20;1.97;;;;;;;14.41;60.97;102208.66;6223874;28;20223;-77
2023/06/04 04:56:34;;;;;;;2.47;1.83;;;;;;;14.29;61.30;102204.25;6223389;28;20306;-76
2023/06/04 04:59:56;;;;;;;6.63;2.03;;;;;;;14.53;61.13;102208.63;6225250;28;20224;-78
2023/06/04 05:03:18;;;;;;;1.57;1.30;;;;;;;14.75;61.25;102203.13;6219467;28;20231;-77
2023/06/04 05:06:39;;;;;;;4.87;2.90;;;;;;;14.77;61.23;102201.97;6224008;28;20231;-77
2023/06/04 05:10:01;;;;;;;2.17;1.67;;;;;;;14.75;61.58;102198.53;6221132;28;20228;-76
2023/06/04 05:13:24;;;;;;;1.93;1.60;;;;;;;14.92;61.22;102197.09;6222377;28;20320;-76
2023/06/04 05:16:52;;;;;;;3.97;2.13;;;;;;;14.96;61.46;102210.28;6220283;28;20868;-77
2023/06/04 05:20:15;;;;;;;3.07;2.77;;;;;;;15.08;61.10;102208.38;6219927;28;20248;-76
2023/06/04 05:23:39;;;;;;;4.83;2.13;;;;;;;15.03;61.82;102202.47;6213058;28;20776;-76
2023/06/04 05:27:03;;;;;;;2.70;1.90;;;;;;;15.10;61.52;102203.69;6221221;28;20566;-76
2023/06/04 05:30:25;;;;;;;2.90;2.13;;;;;;;15.22;62.09;102208.03;6222217;28;20524;-77
2023/06/04 05:33:47;;;;;;;2.40;1.73;;;;;;;15.29;62.22;102208.38;6208132;28;20229;-77
2023/06/04 05:37:11;;;;;;;3.60;2.00;;;;;;;15.32;62.45;102214.38;6226258;28;20227;-77
2023/06/04 05:40:32;;;;;;;2.27;2.07;;;;;;;15.50;62.13;102220.94;6210947;28;21154;-78
2023/06/04 05:43:53;;;;;;;2.83;1.90;;;;;;;15.62;62.07;102211.72;6217347;28;20252;-78
2023/06/04 05:47:19;;;;;;;3.90;2.50;;;;;;;15.73;62.79;102218.91;6226773;28;21060;-76
2023/06/04 05:50:42;;;;;;;4.63;2.00;;;;;;;15.82;62.49;102218.09;6215437;28;20232;-77
2023/06/04 05:54:03;;;;;;;5.03;2.40;;;;;;;15.88;62.43;102207.53;6210924;28;20228;-77
2023/06/04 05:57:27;;;;;;;2.80;1.67;;;;;;;15.98;61.84;102208.41;6215170;28;20224;-77
2023/06/04 06:00:50;;;;;;;8.70;6.57;;;;;;;16.07;62.51;102206.72;6207926;28;20229;-78
2023/06/04 06:04:12;;;;;;;12.60;5.30;;;;;;;15.98;61.67;102211.13;6207513;28;20228;-77
2023/06/04 06:07:35;;;;;;;5.93;4.37;;;;;;;15.88;62.60;102223.84;6217284;28;20255;-77
2023/06/04 06:10:56;;;;;;;6.37;3.27;;;;;;;16.20;61.82;102214.63;6219846;28;20232;-77
2023/06/04 06:14:17;;;;;;;3.07;2.07;;;;;;;16.24;61.41;102218.81;6204315;28;20617;-77
2023/06/04 06:17:38;;;;;;;2.33;2.00;;;;;;;16.35;61.12;102232.31;6226748;28;20636;-77
2023/06/04 06:21:00;;;;;;;6.17;2.27;;;;;;;16.37;61.81;102228.44;6221481;28;20256;-76
2023/06/04 06:24:22;;;;;;;3.57;2.33;;;;;;;16.59;60.78;102227.34;6201657;28;20351;-77
2023/06/04 06:27:43;;;;;;;3.00;2.00;;;;;;;16.67;60.42;102230.22;6221009;28;20830;-76
2023/06/04 06:31:06;;;;;;;1.60;1.50;;;;;;;16.88;59.52;102230.06;6225212;28;20487;-77
2023/06/04 06:34:26;;;;;;;2.20;1.57;;;;;;;16.86;59.36;102227.50;6220332;28;20517;-78
2023/06/04 06:37:48;;;;;;;4.60;2.20;;;;;;;16.99;59.34;102236.25;6221195;28;20256;-76
2023/06/04 06:41:10;;;;;;;2.10;1.53;;;;;;;17.02;58.71;102229.66;6221412;28;20718;-78
2023/06/04 06:44:31;;;;;;;3.23;2.07;;;;;;;17.11;57.83;102231.50;6223025;28;20228;-78
2023/06/04 06:47:52;;;;;;;2.73;1.70;;;;;;;17.15;57.47;102225.59;6209289;28;20233;-76
2023/06/04 06:51:12;;;;;;;2.87;2.23;;;;;;;17.22;57.91;102231.34;6224049;28;20232;-76
2023/06/04 06:54:34;;;;;;;1.58;1.48;;;;;;;17.47;57.75;102226.13;6213321;28;20257;-77
2023/06/04 06:57:56;;;;;;;4.23;2.47;;;;;;;17.49;57.80;102225.97;6219569;28;20232;-79
2023/06/04 07:01:17;;;;;;;2.28;1.73;;;;;;;17.50;57.07;102228.56;6215194;28;20319;-77
2023/06/04 07:04:38;;;;;;;3.97;1.63;;;;;;;17.31;56.99;102235.91;6215197;28;20228;-77
2023/06/04 07:08:00;;;;;;;2.40;1.73;;;;;;;17.45;56.49;102232.72;6193515;28;20606;-78
2023/06/04 07:11:22;;;;;;;2.97;1.60;;;;;;;17.64;55.47;102232.72;6225497;28;20536;-76
2023/06/04 07:14:44;;;;;;;1.77;1.25;;;;;;;17.92;55.18;102247.25;6211345;28;20328;-77
2023/06/04 07:18:06;;;;;;;7.53;2.00;;;;;;;18.08;53.97;102242.88;6216413;28;20339;-76
2023/06/04 07:21:26;;;;;;;2.70;1.80;;;;;;;18.03;54.21;102233.41;6224623;28;20622;-75
2023/06/04 07:24:47;;;;;;;4.43;1.92;;;;;;;18.14;53.83;102233.19;6222438;28;20252;-77
2023/06/04 07:28:08;;;;;;;1.98;1.85;;;;;;;18.36;53.65;102235.50;6230263;28;20677;-77
2023/06/04 07:31:30;;;;;;;2.17;1.52;;;;;;;18.41;52.24;102229.59;6224706;28;20514;-77
2023/06/04 07:34:51;;;;;;;2.60;1.83;;;;;;;18.48;52.42;102231.59;6228296;28;20320;-76
2023/06/04 07:38:12;;;;;;;1.58;1.48;;;;;;;18.77;52.84;102223.19;6213331;28;20256;-76
2023/06/04 07:41:33;;;;;;;1.77;1.67;;;;;;;18.83;52.90;102228.88;6223695;28;21108;-78
2023/06/04 07:44:55;;;;;;;1.92;1.55;;;;;;;18.92;53.20;102224.34;6219005;28;20539;-77
2023/06/04 07:48:17;;;;;;;3.55;1.52;;;;;;;19.15;52.74;102228.28;6225379;28;20240;-77
2023/06/04 07:51:37;;;;;;;2.55;1.42;;;;;;;19.35;51.77;102226.25;6211673;28;20225;-76
2023/06/04 07:55:00;;;;;;;3.20;2.17;;;;;;;19.37;51.72;102218.75;6224701;28;20232;-76
2023/06/04 07:58:21;;;;;;;1.95;1.75;;;;;;;19.34;50.60;102225.38;6231731;28;20232;-77
2023/06/04 08:01:42;;;;;;;2.47;1.20;;;;;;;19.41;50.64;102220.13;6210740;28;20253;-77
2023/06/04 08:05:04;;;;;;;1.27;1.17;;;;;;;19.74;50.39;102222.91;6229070;28;20220;-76
2023/06/04 08:08:25;;;;;;;1.90;1.73;;;;;;;19.85;49.66;102230.84;6199762;28;20237;-77
2023/06/04 08:11:46;;;;;;;1.65;1.52;;;;;;;19.86;49.66;102228.94;6210785;28;20718;-76
2023/06/04 08:15:07;;;;;;;1.58;1.33;;;;;;;19.83;49.79;102227.44;6236416;28;20225;-77
2023/06/04 08:18:28;;;;;;;3.70;2.10;;;;;;;19.98;49.00;102226.81;6230351;28;20232;-78
2023/06/04 08:21:50;;;;;;;4.85;1.35;;;;;;;20.10;48.58;102226.34;6220756;28;20236;-77
2023/06/04 08:25:11;;;;;;;12.52;2.38;;;;;;;20.11;47.55;102217.09;6239077;28;20312;-78
2023/06/04 08:28:32;;;;;;;1.27;1.27;;;;;;;19.96;47.58;102226.09;6207647;28;20233;-77
2023/06/04 08:31:53;;;;;;;1.83;1.52;;;;;;;19.94;47.68;102226.28;6209452;28;20342;-78
2023/06/04 08:35:17;;;;;;;1.67;1.45;;;;;;;20.26;47.29;102226.44;6222981;28;20233;-78
2023/06/04 08:38:41;;;;;;;1.90;1.27;;;;;;;20.31;46.41;102229.53;6221345;28;20215;-78
2023/06/04 08:42:07;;;;;;;1.40;1.30;;;;;;;20.23;46.45;102217.69;6214219;28;20236;-77
2023/06/04 08:45:28;;;;;;;1.40;1.30;;;;;;;20.89;45.78;102226.72;6218103;28;20220;-79
2023/06/04 08:48:50;;;;;;;2.72;1.55;;;;;;;20.99;44.81;102224.69;6202778;28;20229;-76
2023/06/04 08:52:11;;;;;;;1.95;1.33;;;;;;;21.42;44.27;102224.34;6223953;28;20240;-78
2023/06/04 08:55:34;;;;;;;2.08;1.80;;;;;;;21.48;44.43;102220.06;6226014;28;20237;-79
2023/06/04 08:59:01;;;;;;;2.05;1.10;;;;;;;21.22;43.30;102222.13;6220031;28;20224;-78
2023/06/04 09:02:22;;;;;;;2.13;1.30;;;;;;;21.42;43.79;102229.81;6226772;28;20231;-77
2023/06/04 09:05:47;;;;;;;2.45;1.35;;;;;;;21.49;43.07;102225.34;6214734;28;20814;-77
2023/06/04 09:09:10;;;;;;;1.75;1.30;;;;;;;21.36;43.63;102226.94;6222465;28;20228;-77
2023/06/04 09:12:34;;;;;;;3.30;1.30;;;;;;;21.37;43.77;102225.91;6223024;28;20224;-76
2023/06/04 09:16:01;;;;;;;1.17;1.05;;;;;;;21.43;42.58;102237.03;6230332;28;20671;-77
2023/06/04 09:19:23;;;;;;;2.78;1.05;;;;;;;20.98;42.04;102236.69;6221027;28;20619;-77
2023/06/04 09:22:44;;;;;;;2.25;1.55;;;;;;;20.92;42.06;102231.03;6217211;28;20251;-76
2023/06/04 09:26:09;;;;;;;1.33;1.20;;;;;;;21.25;42.83;102243.75;6223517;28;20608;-76
2023/06/04 09:29:31;;;;;;;2.97;1.30;;;;;;;21.48;42.49;102240.13;6220688;28;20247;-77
2023/06/04 09:32:53;;;;;;;1.23;1.13;;;;;;;21.61;42.17;102242.31;6227407;28;20259;-76
2023/06/04 09:36:14;;;;;;;1.52;1.25;;;;;;;21.08;41.93;102242.03;6210304;28;20229;-77
2023/06/04 09:39:36;;;;;;;8.02;4.75;;;;;;;21.48;42.25;102248.38;6208834;28;20260;-77
2023/06/04 09:42:57;;;;;;;1.13;1.08;;;;;;;20.90;41.92;102247.66;6209566;28;20572;-76
2023/06/04 09:46:20;;;;;;;0.70;0.70;;;;;;;21.11;41.01;102242.53;6213308;28;20304;-76
2023/06/04 09:49:44;;;;;;;1.00;1.00;;;;;;;21.46;41.64;102241.31;6199746;28;20229;-77
2023/06/04 09:53:14;;;;;;;2.25;1.50;;;;;;;21.96;42.10;102230.94;6203802;28;20227;-77
2023/06/04 09:56:41;;;;;;;4.38;0.93;;;;;;;22.28;41.07;102228.03;6216107;28;20236;-78
2023/06/04 10:00:08;;;;;;;1.60;1.17;;;;;;;21.49;41.35;102241.81;6214499;28;20599;-76
2023/06/04 10:03:35;;;;;;;2.10;1.08;;;;;;;21.95;40.40;102234.72;6217827;28;20221;-77
2023/06/04 10:06:57;;;;;;;1.50;1.20;;;;;;;21.33;39.97;102241.84;6218186;28;20235;-77
2023/06/04 10:10:21;;;;;;;0.95;0.88;;;;;;;21.86;39.80;102235.75;6223314;28;20327;-76
2023/06/04 10:13:49;;;;;;;1.15;1.02;;;;;;;22.20;39.07;102235.47;6220334;28;20229;-77
2023/06/04 10:17:13;;;;;;;1.42;1.33;;;;;;;22.46;39.88;102236.03;6222543;28;20228;-76
2023/06/04 10:20:35;;;;;;;2.70;0.98;;;;;;;22.45;39.17;102233.44;6232297;28;20225;-78
2023/06/04 10:23:56;;;;;;;1.17;0.82;;;;;;;22.40;38.88;102230.38;6228973;28;20232;-77
2023/06/04 10:27:20;;;;;;;7.28;2.28;;;;;;;21.95;39.05;102228.34;6227214;28;20340;-75
2023/06/04 10:30:41;;;;;;;1.75;1.10;;;;;;;22.54;39.75;102229.63;6226915;28;20233;-77
2023/06/04 10:34:02;;;;;;;1.52;1.10;;;;;;;22.62;38.14;102226.84;6235089;28;20727;-76
2023/06/04 10:37:26;;;;;;;0.98;0.73;;;;;;;22.12;37.54;102230.88;6226438;28;20256;-77
2023/06/04 10:40:47;;;;;;;2.25;1.00;;;;;;;21.75;38.90;102225.13;6223694;28;20228;-78
2023/06/04 10:44:08;;;;;;;1.08;0.98;;;;;;;21.42;39.20;102220.75;6221193;28;20229;-77
2023/06/04 10:47:30;;;;;;;3.55;1.20;;;;;;;21.24;40.05;102223.69;6215298;28;20224;-77
2023/06/04 10:50:52;;;;;;;2.60;1.15;;;;;;;21.89;39.76;102221.69;6227171;28;20226;-78
2023/06/04 10:54:24;;;;;;;2.25;1.42;;;;;;;22.79;39.30;102223.81;6226961;28;20233;-78
2023/06/04 10:57:52;;;;;;;0.77;0.73;;;;;;;23.38;38.75;102235.03;6220335;28;20223;-78
2023/06/04 11:01:24;;;;;;;2.15;1.42;;;;;;;23.48;38.64;102231.00;6218176;28;20224;-77
2023/06/04 11:04:45;;;;;;;0.90;0.73;;;;;;;24.02;38.48;102234.34;6230008;28;20220;-78
2023/06/04 11:08:08;;;;;;;4.90;1.63;;;;;;;24.07;38.00;102222.78;6223973;28;20232;-77
2023/06/04 11:11:30;;;;;;;1.05;0.88;;;;;;;23.43;36.83;102233.44;6224145;28;20251;-78
2023/06/04 11:14:56;;;;;;;1.33;1.15;;;;;;;23.12;37.55;102226.28;6220974;28;20256;-76
2023/06/04 11:18:18;;;;;;;1.85;1.45;;;;;;;21.53;39.22;102220.38;6218717;28;20240;-77
2023/06/04 11:21:39;;;;;;;3.38;1.77;;;;;;;22.62;39.10;102224.09;6210375;28;20232;-77
2023/06/04 11:25:00;;;;;;;3.65;1.88;;;;;;;23.37;38.25;102214.03;6229253;28;20316;-76
2023/06/04 11:28:22;;;;;;;1.25;1.15;;;;;;;24.13;38.31;102216.50;6226199;28;20346;-76
2023/06/04 11:31:45;;;;;;;1.15;0.80;;;;;;;24.30;37.73;102216.06;6208648;28;20228;-74
2023/06/04 11:35:07;;;;;;;0.73;0.73;;;;;;;24.90;37.74;102210.22;6232797;28;20229;-77
2023/06/04 11:38:28;;;;;;;1.88;1.60;;;;;;;24.48;37.25;102207.38;6218745;28;20250;-75
2023/06/04 11:41:51;;;;;;;2.55;1.77;;;;;;;24.88;38.02;102201.28;6211401;28;20236;-74
2023/06/04 11:45:13;;;;;;;5.10;4.43;;;;;;;25.25;37.79;102197.34;6220467;28;20657;-77
2023/06/04 11:48:35;;;;;;;4.68;4.25;;;;;;;25.61;37.18;102189.81;6217259;28;20625;-75
2023/06/04 11:51:56;;;;;;;4.07;1.17;;;;;;;25.36;36.71;102205.97;6218009;28;20240;-75
2023/06/04 11:55:20;;;;;;;2.30;1.48;;;;;;;25.29;36.38;102202.28;6233076;28;20464;-77
2023/06/04 11:58:41;;;;;;;1.77;1.00;;;;;;;25.41;36.27;102201.75;6220060;28;20322;-74
2023/06/04 12:02:04;;;;;;;1.55;1.02;;;;;;;25.29;36.38;102199.53;6218673;28;20231;-76
2023/06/04 12:05:32;;;;;;;1.52;1.20;;;;;;;24.91;37.02;102205.56;6228382;28;20824;-75
2023/06/04 12:08:54;;;;;;;2.20;1.40;;;;;;;25.01;37.18;102204.16;6217096;28;20232;-75
2023/06/04 12:12:15;;;;;;;1.52;1.40;;;;;;;25.36;37.08;102205.97;6215954;28;20613;-76
2023/06/04 12:15:36;;;;;;;2.20;0.98;;;;;;;25.35;36.82;102207.00;6226389;28;20221;-75
2023/06/04 12:19:09;;;;;;;2.92;1.77;;;;;;;24.83;36.71;102201.00;6222936;28;20247;-76
2023/06/04 12:22:31;;;;;;;3.47;1.15;;;;;;;24.31;37.30;102203.16;6217466;28;20236;-75
2023/06/04 12:25:53;;;;;;;1.50;1.10;;;;;;;23.71;37.04;102195.09;6217159;28;20224;-76
2023/06/04 12:29:15;;;;;;;2.03;1.30;;;;;;;24.80;37.17;102192.28;6233168;28;20224;-81
2023/06/04 12:32:36;;;;;;;3.22;1.23;;;;;;;25.51;36.34;102189.31;6217856;28;20236;-81
2023/06/04 12:35:58;;;;;;;1.65;0.98;;;;;;;25.89;35.53;102187.84;6236729;28;20240;-79
2023/06/04 12:39:19;;;;;;;1.15;0.60;;;;;;;26.36;34.86;102189.78;6231950;28;20224;-81
2023/06/04 12:42:40;;;;;;;1.38;1.10;;;;;;;26.64;35.10;102184.13;6224575;28;20231;-78
2023/06/04 12:46:01;;;;;;;1.00;0.90;;;;;;;26.62;35.04;102186.22;6221487;28;22701;-80
2023/06/04 12:49:22;;;;;;;2.25;1.45;;;;;;;26.97;34.70;102185.06;6226896;28;20224;-81
2023/06/04 12:52:46;;;;;;;1.27;1.10;;;;;;;27.11;33.89;102183.97;6221164;28;20240;-80
2023/06/04 12:56:07;;;;;;;1.48;1.10;;;;;;;27.14;34.15;102174.41;6209320;28;20323;-80
2023/06/04 12:59:29;;;;;;;1.08;1.08;;;;;;;27.00;33.44;102189.28;6217541;28;20236;-86
2023/06/04 13:02:50;;;;;;;1.58;1.20;;;;;;;27.21;33.49;102180.78;6210199;28;20240;-80
2023/06/04 13:06:11;;;;;;;1.40;1.13;;;;;;;27.37;33.69;102178.44;6219474;28;20804;-79
2023/06/04 13:09:34;;;;;;;3.17;1.10;;;;;;;27.63;33.07;102181.19;6206875;28;20560;-81
2023/06/04 13:12:55;;;;;;;1.25;0.95;;;;;;;27.14;31.93;102183.53;6218930;28;20231;-84
2023/06/04 13:16:18;;;;;;;3.10;1.38;;;;;;;29.00;30.57;102176.94;6214327;28;20229;-83
2023/06/04 13:19:39;;;;;;;3.17;1.00;;;;;;;30.37;29.80;102184.97;6206446;28;20232;-76
2023/06/04 13:22:59;;;;;;;2.40;1.48;;;;;;;31.90;29.88;102178.31;6218000;28;20563;-76
2023/06/04 13:26:23;;;;;;;2.63;1.40;;;;;;;31.13;28.58;102176.72;6215369;28;21347;-76
2023/06/04 13:29:44;;;;;;;2.05;1.95;;;;;;;31.81;27.73;102174.22;6224141;28;20232;-76
2023/06/04 13:33:06;;;;;;;1.05;1.05;;;;;;;31.12;28.13;102175.06;6212787;28;20669;-74
2023/06/04 13:36:26;;;;;;;1.65;1.30;;;;;;;31.35;28.33;102175.06;6219188;28;20239;-76
2023/06/04 13:39:47;;;;;;;1.58;1.02;;;;;;;30.23;29.16;102178.66;6225482;28;20240;-76
2023/06/04 13:43:10;;;;;;;0.95;0.80;;;;;;;31.14;28.05;102173.72;6201329;28;20233;-75
2023/06/04 13:46:31;;;;;;;1.92;1.33;;;;;;;30.88;29.44;102168.56;6210985;28;21613;-73
2023/06/04 13:49:53;;;;;;;0.77;0.77;;;;;;;27.24;29.96;102164.59;6229435;28;20700;-75
2023/06/04 13:53:15;;;;;;;1.13;0.77;;;;;;;26.07;31.40;102168.84;6232351;28;20231;-75
2023/06/04 13:56:35;;;;;;;1.95;1.40;;;;;;;27.16;31.80;102166.72;6231468;28;21396;-76
2023/06/04 13:59:57;;;;;;;2.08;1.35;;;;;;;27.57;33.07;102164.59;6230266;28;20277;-74
2023/06/04 14:03:18;;;;;;;2.65;1.35;;;;;;;28.32;31.95;102162.00;6230780;28;20236;-74
2023/06/04 14:06:39;;;;;;;0.77;0.77;;;;;;;27.41;32.66;102162.28;6216619;28;20628;-70
2023/06/04 14:10:01;;;;;;;1.83;0.82;;;;;;;25.48;35.37;102166.75;6239282;28;20232;-70
2023/06/04 14:13:21;;;;;;;1.45;1.15;;;;;;;26.07;35.40;102165.19;6222863;28;20307;-70
2023/06/04 14:16:43;;;;;;;2.20;1.30;;;;;;;27.07;35.11;102165.22;6209594;28;20240;-69
2023/06/04 14:20:07;;;;;;;3.00;1.23;;;;;;;27.75;34.15;102156.41;6238824;28;20228;-68
2023/06/04 14:23:27;;;;;;;4.47;3.80;;;;;;;25.72;35.37;102142.25;6225568;28;20383;-68
2023/06/04 14:26:48;;;;;;;2.33;1.38;;;;;;;24.93;36.23;102151.03;6218516;28;20232;-70
2023/06/04 14:30:10;;;;;;;1.08;1.08;;;;;;;23.78;37.12;102150.06;6229496;28;20928;-69
2023/06/04 14:33:32;;;;;;;2.85;1.15;;;;;;;24.85;37.93;102146.47;6220620;28;20724;-69
2023/06/04 14:36:54;;;;;;;1.65;1.27;;;;;;;26.41;36.32;102142.16;6210964;28;20228;-70
2023/06/04 14:40:14;;;;;;;3.70;1.38;;;;;;;26.68;34.70;102136.41;6238047;28;20228;-71
2023/06/04 14:43:36;;;;;;;1.60;1.50;;;;;;;27.16;35.78;102141.81;6222902;28;20232;-69
2023/06/04 14:46:57;;;;;;;2.70;2.50;;;;;;;27.45;34.23;102139.44;6215513;28;20240;-70
2023/06/04 14:50:20;;;;;;;2.00;1.35;;;;;;;26.71;34.95;102144.31;6236355;28;20228;-70
2023/06/04 14:53:41;;;;;;;0.93;0.93;;;;;;;26.21;34.63;102142.06;6231062;28;20517;-69
2023/06/04 14:57:01;;;;;;;2.15;1.35;;;;;;;26.73;35.03;102145.00;6217337;28;20231;-69
2023/06/04 15:00:22;;;;;;;2.67;2.00;;;;;;;26.68;34.50;102139.19;6222911;28;20258;-71
2023/06/04 15:03:43;;;;;;;1.25;0.80;;;;;;;26.53;34.77;102133.03;6218214;28;20231;-71
2023/06/04 15:07:06;;;;;;;2.55;1.55;;;;;;;26.82;35.46;102129.88;6214289;28;20228;-71
2023/06/04 15:10:27;;;;;;;1.83;1.48;;;;;;;27.43;34.02;102138.81;6225466;28;20740;-70
2023/06/04 15:13:48;;;;;;;1.83;1.60;;;;;;;27.26;33.86;102134.78;6231483;28;20919;-70
2023/06/04 15:17:09;;;;;;;1.30;1.20;;;;;;;27.11;34.39;102139.69;6216148;28;20607;-71
2023/06/04 15:20:30;;;;;;;1.98;1.50;;;;;;;27.11;34.28;102124.97;6230861;28;20651;-71
2023/06/04 15:23:52;;;;;;;3.88;1.70;;;;;;;27.37;34.16;102128.59;6218613;28;20232;-72
2023/06/04 15:27:13;;;;;;;2.15;1.35;;;;;;;27.01;34.98;102135.63;6216537;28;20311;-71
2023/06/04 15:30:34;;;;;;;1.10;1.00;;;;;;;26.98;34.58;102128.59;6232291;28;20311;-70
2023/06/04 15:33:55;;;;;;;2.00;1.38;;;;;;;26.57;34.44;102123.22;6214453;28;20298;-70
2023/06/04 15:37:16;;;;;;;3.25;2.08;;;;;;;26.53;35.07;102121.09;6205912;28;20235;-73
2023/06/04 15:40:38;;;;;;;5.70;2.08;;;;;;;26.59;34.58;102128.53;6215494;28;20237;-70